createdAt,value
2022-08-05T00:00:18.856Z,3.63
2022-08-05T00:02:51.393Z,4.10
2022-08-05T00:06:02.555Z,3.20
2022-08-05T00:08:34.169Z,3.70
2022-08-05T00:11:01.353Z,3.83
2022-08-05T00:13:38.685Z,3.20
2022-08-05T00:16:12.261Z,3.42
2022-08-05T00:18:45.709Z,3.20
2022-08-05T00:21:18.517Z,3.50
2022-08-05T00:23:53.676Z,3.67
2022-08-05T00:26:37.856Z,3.90
2022-08-05T00:29:06.925Z,3.35
2022-08-05T00:31:53.912Z,3.50
2022-08-05T00:34:56.278Z,3.92
2022-08-05T00:37:15.384Z,3.47
2022-08-05T00:39:57.369Z,3.72
2022-08-05T00:42:32.483Z,3.72
2022-08-05T00:45:02.430Z,3.60
2022-08-05T00:47:52.990Z,3.97
2022-08-05T00:50:25.384Z,3.95
2022-08-05T00:52:55.433Z,4.05
2022-08-05T00:55:42.281Z,3.70
2022-08-05T00:58:12.204Z,3.55
2022-08-05T01:00:42.646Z,3.60
2022-08-05T01:03:22.713Z,3.78
2022-08-05T01:05:54.441Z,4.18
2022-08-05T01:08:40.529Z,3.67
2022-08-05T01:11:22.204Z,3.88
2022-08-05T01:14:03.788Z,3.70
2022-08-05T01:16:49.494Z,3.50
2022-08-05T01:19:36.495Z,4.13
2022-08-05T01:22:34.093Z,3.83
2022-08-05T01:25:39.878Z,3.42
2022-08-05T01:28:24.210Z,3.42
2022-08-05T01:30:57.858Z,3.70
2022-08-05T01:33:36.007Z,4.00
2022-08-05T01:36:13.048Z,3.90
2022-08-05T01:38:48.483Z,3.90
2022-08-05T01:41:25.753Z,4.45
2022-08-05T01:43:57.148Z,3.80
2022-08-05T01:46:42.903Z,3.63
2022-08-05T01:49:23.011Z,3.97
2022-08-05T01:51:59.742Z,3.97
2022-08-05T01:54:33.163Z,4.05
2022-08-05T01:58:18.881Z,4.28
2022-08-05T01:59:58.574Z,4.47
2022-08-05T02:02:30.667Z,4.93
2022-08-05T02:05:04.488Z,4.90
2022-08-05T02:07:47.359Z,4.25
2022-08-05T02:10:35.755Z,4.63
2022-08-05T02:13:16.632Z,4.13
2022-08-05T02:15:51.894Z,3.80
2022-08-05T02:18:32.359Z,4.50
2022-08-05T02:21:15.307Z,3.85
2022-08-05T02:23:47.395Z,4.25
2022-08-05T02:26:26.781Z,3.92
2022-08-05T02:28:58.280Z,4.05
2022-08-05T02:31:34.910Z,3.60
2022-08-05T02:34:06.388Z,4.65
2022-08-05T02:36:43.958Z,4.07
2022-08-05T02:39:16.730Z,3.45
2022-08-05T02:42:01.359Z,3.95
2022-08-05T02:44:33.044Z,3.72
2022-08-05T02:47:07.291Z,3.75
2022-08-05T02:49:40.424Z,3.85
2022-08-05T02:52:13.545Z,4.15
2022-08-05T02:54:56.887Z,3.35
2022-08-05T02:58:11.120Z,4.50
2022-08-05T03:00:15.896Z,3.65
2022-08-05T03:02:49.843Z,5.28
2022-08-05T03:05:21.884Z,5.07
2022-08-05T03:08:11.677Z,4.68
2022-08-05T03:10:44.136Z,5.00
2022-08-05T03:13:52.047Z,4.25
2022-08-05T03:16:22.678Z,4.88
2022-08-05T03:18:53.232Z,5.82
2022-08-05T03:21:24.009Z,7.25
2022-08-05T03:23:58.890Z,5.90
2022-08-05T03:26:32.041Z,6.85
2022-08-05T03:29:02.223Z,5.80
2022-08-05T03:31:57.058Z,5.57
2022-08-05T03:34:24.634Z,7.45
2022-08-05T03:36:53.722Z,5.40
2022-08-05T03:39:27.153Z,6.43
2022-08-05T03:41:57.056Z,5.80
2022-08-05T03:44:28.972Z,5.35
2022-08-05T03:46:57.900Z,6.10
2022-08-05T03:49:31.049Z,5.40
2022-08-05T03:52:37.445Z,6.22
2022-08-05T03:56:03.615Z,9.18
2022-08-05T03:58:13.354Z,7.10
2022-08-05T04:00:44.302Z,7.53
2022-08-05T04:03:26.601Z,8.65
2022-08-05T04:05:59.824Z,8.02
2022-08-05T04:08:36.562Z,8.02
2022-08-05T04:11:08.654Z,8.70
2022-08-05T04:13:51.075Z,7.90
2022-08-05T04:16:25.328Z,8.27
2022-08-05T04:19:00.932Z,7.55
2022-08-05T04:22:05.736Z,6.90
2022-08-05T04:24:22.669Z,8.60
2022-08-05T04:26:52.032Z,9.38
2022-08-05T04:29:21.218Z,8.52
2022-08-05T04:31:52.454Z,8.38
2022-08-05T04:34:33.683Z,7.88
2022-08-05T04:37:05.685Z,6.10
2022-08-05T04:39:35.320Z,6.95
2022-08-05T04:42:05.346Z,8.30
2022-08-05T04:44:34.150Z,9.20
2022-08-05T04:47:09.325Z,7.60
2022-08-05T04:50:02.829Z,7.03
2022-08-05T04:52:33.388Z,8.05
2022-08-05T04:55:14.346Z,7.63
2022-08-05T04:57:47.587Z,7.95
2022-08-05T05:00:17.838Z,8.75
2022-08-05T05:02:47.056Z,8.00
2022-08-05T05:05:28.204Z,7.82
2022-08-05T05:08:02.589Z,7.47
2022-08-05T05:10:33.446Z,8.15
2022-08-05T05:13:04.038Z,8.15
2022-08-05T05:15:56.762Z,8.13
2022-08-05T05:18:28.782Z,8.88
2022-08-05T05:21:04.023Z,8.77
2022-08-05T05:23:39.014Z,8.25
2022-08-05T05:26:28.299Z,7.82
2022-08-05T05:29:02.660Z,8.30
2022-08-05T05:31:46.182Z,7.80
2022-08-05T05:34:16.694Z,7.65
2022-08-05T05:36:47.981Z,8.77
2022-08-05T05:39:21.644Z,8.55
2022-08-05T05:41:54.796Z,8.15
2022-08-05T05:44:36.716Z,7.90
2022-08-05T05:47:13.105Z,7.88
2022-08-05T05:49:56.716Z,8.57
2022-08-05T05:52:34.519Z,11.10
2022-08-05T05:55:07.532Z,8.88
2022-08-05T05:57:52.325Z,8.15
2022-08-05T06:00:31.496Z,9.52
2022-08-05T06:03:03.509Z,11.18
2022-08-05T06:05:54.243Z,8.25
2022-08-05T06:08:32.497Z,11.27
2022-08-05T06:11:04.033Z,10.68
2022-08-05T06:13:40.527Z,13.52
2022-08-05T06:16:30.643Z,10.77
2022-08-05T06:19:05.451Z,13.82
2022-08-05T06:21:38.850Z,11.43
2022-08-05T06:24:12.778Z,14.35
2022-08-05T06:26:51.451Z,11.98
2022-08-05T06:29:43.034Z,12.98
2022-08-05T06:32:20.868Z,13.52
2022-08-05T06:34:56.613Z,13.05
2022-08-05T06:37:57.083Z,11.25
2022-08-05T06:40:18.178Z,14.60
2022-08-05T06:42:52.915Z,12.93
2022-08-05T06:46:03.028Z,13.55
2022-08-05T06:48:52.589Z,13.43
2022-08-05T06:51:02.404Z,14.25
2022-08-05T06:53:39.431Z,14.15
2022-08-05T06:56:26.276Z,14.63
2022-08-05T06:58:57.249Z,15.80
2022-08-05T07:01:32.502Z,17.85
2022-08-05T07:04:03.132Z,16.25
2022-08-05T07:06:32.578Z,16.92
2022-08-05T07:09:03.741Z,14.40
2022-08-05T07:11:37.077Z,17.27
2022-08-05T07:14:30.335Z,18.10
2022-08-05T07:18:09.381Z,20.13
2022-08-05T07:22:43.158Z,19.92
2022-08-05T07:25:54.378Z,19.50
2022-08-05T07:28:09.684Z,18.90
2022-08-05T07:30:43.143Z,23.00
2022-08-05T07:33:16.144Z,24.52
2022-08-05T07:36:02.054Z,24.85
2022-08-05T07:38:42.745Z,23.92
2022-08-05T07:42:12.847Z,26.00
2022-08-05T07:44:14.229Z,22.73
2022-08-05T07:46:50.384Z,24.75
2022-08-05T07:49:20.469Z,22.10
2022-08-05T07:51:54.513Z,23.40
2022-08-05T07:54:31.206Z,21.45
2022-08-05T07:57:17.695Z,19.60
2022-08-05T07:59:52.409Z,19.70
2022-08-05T08:02:30.754Z,17.50
2022-08-05T08:05:01.174Z,18.13
2022-08-05T08:07:39.687Z,18.00
2022-08-05T08:10:20.574Z,17.85
2022-08-05T08:12:50.456Z,18.10
2022-08-05T08:16:33.388Z,18.85
2022-08-05T08:18:14.240Z,18.17
2022-08-05T08:21:03.072Z,19.05
2022-08-05T08:24:03.682Z,18.73
2022-08-05T08:26:26.745Z,19.35
2022-08-05T08:29:09.713Z,19.95
2022-08-05T08:31:49.114Z,19.67
2022-08-05T08:34:30.248Z,20.88
2022-08-05T08:37:03.385Z,19.02
2022-08-05T08:39:37.458Z,20.20
2022-08-05T08:42:32.525Z,19.50
2022-08-05T08:45:25.162Z,21.58
2022-08-05T08:48:06.695Z,21.08
2022-08-05T08:51:03.251Z,20.27
2022-08-05T08:53:40.279Z,21.65
2022-08-05T08:56:14.391Z,20.52
2022-08-05T08:58:48.648Z,22.35
2022-08-05T09:01:21.691Z,21.35
2022-08-05T09:03:54.476Z,21.63
2022-08-05T09:06:30.179Z,22.17
2022-08-05T09:09:01.575Z,21.00
2022-08-05T09:11:51.911Z,21.25
2022-08-05T09:14:56.728Z,20.73
2022-08-05T09:17:41.354Z,18.00
2022-08-05T09:20:05.041Z,20.02
2022-08-05T09:23:19.460Z,20.98
2022-08-05T09:26:01.668Z,21.17
2022-08-05T09:28:35.071Z,21.35
2022-08-05T09:31:43.937Z,20.75
2022-08-05T09:33:58.585Z,21.40
2022-08-05T09:36:45.858Z,21.88
2022-08-05T09:39:41.503Z,24.08
2022-08-05T09:42:23.500Z,26.95
2022-08-05T09:45:17.159Z,27.10
2022-08-05T09:47:55.977Z,26.98
2022-08-05T09:50:38.835Z,27.70
2022-08-05T09:53:22.949Z,27.25
2022-08-05T09:56:04.977Z,27.33
2022-08-05T09:58:42.358Z,28.52
2022-08-05T10:01:22.544Z,25.90
2022-08-05T10:04:04.497Z,27.58
2022-08-05T10:06:49.808Z,30.88
2022-08-05T10:09:29.851Z,33.97
2022-08-05T10:12:30.220Z,33.72
2022-08-05T10:15:20.326Z,33.85
2022-08-05T10:18:11.615Z,36.55
2022-08-05T10:20:44.315Z,35.95
2022-08-05T10:23:34.062Z,32.88
2022-08-05T10:26:14.417Z,31.48
2022-08-05T10:28:47.272Z,28.92
2022-08-05T10:32:49.069Z,28.25
2022-08-05T10:34:30.070Z,29.15
2022-08-05T10:37:00.812Z,31.17
2022-08-05T10:40:03.401Z,29.50
2022-08-05T10:42:33.371Z,25.10
2022-08-05T10:45:21.434Z,25.08
2022-08-05T10:48:30.158Z,21.77
2022-08-05T10:50:59.807Z,18.38
2022-08-05T10:53:42.667Z,17.23
2022-08-05T10:56:21.590Z,16.38
2022-08-05T10:59:12.510Z,14.02
2022-08-05T11:02:34.967Z,13.32
2022-08-05T11:04:59.023Z,12.93
2022-08-05T11:07:32.880Z,11.88
2022-08-05T11:10:27.622Z,10.55
2022-08-05T11:12:57.537Z,8.95
2022-08-05T11:16:00.987Z,7.53
2022-08-05T11:18:29.927Z,6.70
2022-08-05T11:20:59.685Z,6.85
2022-08-05T11:24:05.287Z,7.95
2022-08-05T11:26:28.439Z,8.80
2022-08-05T11:29:12.077Z,7.93
2022-08-05T11:31:57.686Z,7.43
2022-08-05T11:34:47.413Z,5.57
2022-08-05T11:38:28.186Z,4.82
2022-08-05T11:41:14.032Z,5.10
2022-08-05T11:44:04.419Z,4.70
2022-08-05T11:46:58.744Z,5.20
2022-08-05T11:49:27.652Z,5.70
2022-08-05T11:51:58.426Z,5.05
2022-08-05T11:54:33.573Z,4.95
2022-08-05T11:57:08.520Z,5.47
2022-08-05T11:59:54.721Z,5.45
2022-08-05T12:02:30.352Z,5.45
2022-08-05T12:05:06.805Z,4.80
2022-08-05T12:08:09.295Z,4.50
2022-08-05T12:10:43.521Z,5.20
2022-08-05T12:13:27.713Z,4.90
2022-08-05T12:16:14.567Z,4.47
2022-08-05T12:18:49.349Z,4.32
2022-08-05T12:21:24.969Z,4.72
2022-08-05T12:24:04.818Z,5.22
2022-08-05T12:26:36.289Z,5.47
2022-08-05T12:29:09.582Z,5.22
2022-08-05T12:31:49.750Z,5.13
2022-08-05T12:34:25.932Z,4.75
2022-08-05T12:36:56.330Z,5.13
2022-08-05T12:39:37.073Z,7.05
2022-08-05T12:42:14.462Z,7.20
2022-08-05T12:44:46.014Z,6.20
2022-08-05T12:47:30.557Z,5.13
2022-08-05T12:50:03.968Z,5.20
2022-08-05T12:52:39.059Z,6.10
2022-08-05T12:55:25.202Z,5.45
2022-08-05T12:58:52.625Z,5.20
2022-08-05T13:02:04.443Z,4.30
2022-08-05T13:03:41.635Z,4.18
2022-08-05T13:06:18.097Z,3.70
2022-08-05T13:08:51.805Z,4.20
2022-08-05T13:11:25.576Z,3.10
2022-08-05T13:14:19.774Z,4.00
2022-08-05T13:16:56.580Z,3.80
2022-08-05T13:19:51.808Z,3.60
2022-08-05T13:22:28.498Z,3.90
2022-08-05T13:25:05.584Z,3.72
2022-08-05T13:27:39.023Z,3.58
2022-08-05T13:30:34.451Z,3.40
2022-08-05T13:33:01.460Z,3.80
2022-08-05T13:35:47.377Z,3.50
2022-08-05T13:38:31.153Z,3.20
2022-08-05T13:41:05.946Z,3.15
2022-08-05T13:43:45.131Z,3.40
2022-08-05T13:46:37.974Z,3.45
2022-08-05T13:49:14.234Z,3.40
2022-08-05T13:51:45.767Z,3.70
2022-08-05T13:54:17.215Z,3.10
2022-08-05T13:56:51.761Z,2.85
2022-08-05T13:59:26.947Z,3.25
2022-08-05T14:02:00.160Z,3.22
2022-08-05T14:04:49.922Z,2.95
2022-08-05T14:07:55.410Z,4.22
2022-08-05T14:10:12.594Z,3.55
2022-08-05T14:12:48.882Z,3.35
2022-08-05T14:16:09.254Z,4.03
2022-08-05T14:18:14.979Z,4.22
2022-08-05T14:20:48.384Z,3.80
2022-08-05T14:23:24.604Z,3.88
2022-08-05T14:25:58.795Z,3.83
2022-08-05T14:28:29.458Z,3.85
2022-08-05T14:31:01.480Z,3.90
2022-08-05T14:33:56.981Z,3.90
2022-08-05T14:36:21.642Z,3.92
2022-08-05T14:38:51.406Z,4.60
2022-08-05T14:41:20.739Z,4.57
2022-08-05T14:44:02.436Z,4.72
2022-08-05T14:46:36.442Z,4.38
2022-08-05T14:49:08.081Z,4.93
2022-08-05T14:51:38.317Z,4.47
2022-08-05T14:54:28.785Z,4.05
2022-08-05T14:56:57.755Z,5.03
2022-08-05T14:59:29.614Z,4.50
2022-08-05T15:02:15.124Z,4.70
2022-08-05T15:04:47.985Z,4.68
2022-08-05T15:08:04.542Z,4.70
2022-08-05T15:10:09.514Z,4.15
2022-08-05T15:13:00.313Z,4.05
2022-08-05T15:15:55.075Z,3.50
2022-08-05T15:18:19.471Z,3.13
2022-08-05T15:20:48.681Z,3.58
2022-08-05T15:23:18.756Z,4.00
2022-08-05T15:25:53.392Z,3.45
2022-08-05T15:28:27.735Z,3.90
2022-08-05T15:30:57.210Z,4.10
2022-08-05T15:34:04.737Z,3.30
2022-08-05T15:36:36.226Z,3.72
2022-08-05T15:40:59.658Z,4.32
2022-08-05T15:42:56.641Z,4.00
2022-08-05T15:45:38.702Z,2.95
2022-08-05T15:48:09.875Z,2.30
2022-08-05T15:50:48.187Z,2.50
2022-08-05T15:53:17.184Z,2.17
2022-08-05T15:56:01.852Z,2.58
2022-08-05T15:58:35.761Z,2.47
2022-08-05T16:01:17.321Z,2.10
2022-08-05T16:03:48.769Z,1.60
2022-08-05T16:06:23.077Z,1.75
2022-08-05T16:08:53.611Z,1.80
2022-08-05T16:11:42.366Z,1.42
2022-08-05T16:14:17.499Z,1.50
2022-08-05T16:16:47.255Z,1.60
2022-08-05T16:19:25.237Z,1.63
2022-08-05T16:22:10.447Z,1.35
2022-08-05T16:24:51.764Z,1.40
2022-08-05T16:27:32.065Z,1.52
2022-08-05T16:30:26.337Z,1.67
2022-08-05T16:32:58.538Z,1.20
2022-08-05T16:35:32.189Z,1.10
2022-08-05T16:38:23.747Z,1.45
2022-08-05T16:40:59.694Z,1.40
2022-08-05T16:43:32.062Z,1.73
2022-08-05T16:46:05.827Z,1.40
2022-08-05T16:48:38.882Z,1.42
2022-08-05T16:51:10.362Z,1.45
2022-08-05T16:54:05.728Z,1.40
2022-08-05T16:56:33.805Z,1.50
2022-08-05T16:59:08.320Z,2.17
2022-08-05T17:01:53.956Z,2.00
2022-08-05T17:04:27.444Z,2.33
2022-08-05T17:07:01.232Z,2.60
2022-08-05T17:09:57.193Z,2.33
2022-08-05T17:12:50.241Z,2.45
2022-08-05T17:15:15.702Z,2.80
2022-08-05T17:17:52.822Z,2.78
2022-08-05T17:20:25.109Z,2.53
2022-08-05T17:22:57.464Z,2.50
2022-08-05T17:25:40.198Z,2.22
2022-08-05T17:28:10.131Z,2.33
2022-08-05T17:30:42.758Z,2.88
2022-08-05T17:33:21.134Z,1.85
2022-08-05T17:36:09.041Z,1.77
2022-08-05T17:38:39.859Z,1.90
2022-08-05T17:41:11.649Z,2.30
2022-08-05T17:43:59.856Z,1.80
2022-08-05T17:46:30.434Z,1.73
2022-08-05T17:48:59.967Z,1.80
2022-08-05T17:51:29.858Z,1.80
2022-08-05T17:54:09.648Z,1.50
2022-08-05T17:56:40.101Z,1.98
2022-08-05T17:59:09.043Z,1.75
2022-08-05T18:01:48.505Z,1.88
2022-08-05T18:04:21.189Z,1.38
2022-08-05T18:06:51.242Z,1.63
2022-08-05T18:09:21.789Z,1.65
2022-08-05T18:11:52.681Z,1.30
2022-08-05T18:14:21.770Z,1.45
2022-08-05T18:16:52.118Z,2.08
2022-08-05T18:19:22.644Z,1.50
2022-08-05T18:22:08.567Z,2.05
2022-08-05T18:24:40.519Z,1.10
2022-08-05T18:27:12.365Z,1.50
2022-08-05T18:29:54.047Z,1.10
2022-08-05T18:32:28.027Z,1.10
2022-08-05T18:34:58.221Z,0.85
2022-08-05T18:37:34.569Z,0.98
2022-08-05T18:40:33.930Z,0.90
2022-08-05T18:43:01.323Z,1.20
2022-08-05T18:45:41.921Z,0.85
2022-08-05T18:48:17.462Z,0.90
2022-08-05T18:52:04.447Z,0.70
2022-08-05T18:54:08.878Z,0.90
2022-08-05T18:56:38.402Z,1.02
2022-08-05T18:59:43.587Z,0.90
2022-08-05T19:01:58.436Z,0.90
2022-08-05T19:04:29.795Z,0.85
2022-08-05T19:06:58.757Z,0.80
2022-08-05T19:09:28.070Z,0.80
2022-08-05T19:12:10.598Z,1.00
2022-08-05T19:15:00.535Z,1.00
2022-08-05T19:17:59.147Z,0.80
2022-08-05T19:20:20.884Z,0.98
2022-08-05T19:22:49.479Z,1.00
2022-08-05T19:25:21.713Z,1.10
2022-08-05T19:27:59.574Z,0.93
2022-08-05T19:30:30.425Z,0.85
2022-08-05T19:32:59.451Z,0.90
2022-08-05T19:35:28.401Z,0.95
2022-08-05T19:38:24.078Z,0.90
2022-08-05T19:40:55.944Z,0.90
2022-08-05T19:44:06.699Z,0.90
2022-08-05T19:46:29.048Z,0.93
2022-08-05T19:49:00.934Z,1.00
2022-08-05T19:52:04.823Z,0.88
2022-08-05T19:54:29.713Z,1.45
2022-08-05T19:57:02.344Z,1.00
2022-08-05T19:59:59.352Z,0.90
2022-08-05T20:02:23.005Z,1.00
2022-08-05T20:04:52.170Z,0.90
2022-08-05T20:07:47.363Z,0.77
2022-08-05T20:10:11.525Z,1.00
2022-08-05T20:12:47.542Z,0.95
2022-08-05T20:15:48.639Z,1.02
2022-08-05T20:18:34.006Z,0.80
2022-08-05T20:20:59.868Z,1.00
2022-08-05T20:23:40.408Z,0.80
2022-08-05T20:26:19.417Z,0.90
2022-08-05T20:28:53.980Z,0.90
2022-08-05T20:31:37.189Z,1.10
2022-08-05T20:34:13.570Z,1.10
2022-08-05T20:36:43.527Z,1.13
2022-08-05T20:39:16.745Z,1.00
2022-08-05T20:41:46.804Z,1.25
2022-08-05T20:44:29.434Z,1.20
2022-08-05T20:47:01.067Z,1.25
2022-08-05T20:49:33.223Z,1.20
2022-08-05T20:52:09.023Z,1.35
2022-08-05T20:54:43.201Z,1.02
2022-08-05T20:57:43.054Z,1.00
2022-08-05T21:00:41.502Z,1.30
2022-08-05T21:03:08.143Z,1.05
2022-08-05T21:05:54.250Z,0.80
2022-08-05T21:08:32.825Z,1.00
2022-08-05T21:11:11.590Z,1.30
2022-08-05T21:13:48.119Z,0.95
2022-08-05T21:16:29.542Z,0.90
2022-08-05T21:19:01.202Z,1.00
2022-08-05T21:21:39.119Z,1.30
2022-08-05T21:24:09.870Z,1.20
2022-08-05T21:26:45.956Z,0.95
2022-08-05T21:29:19.599Z,1.27
2022-08-05T21:31:52.437Z,1.02
2022-08-05T21:34:23.010Z,0.90
2022-08-05T21:36:54.835Z,1.00
2022-08-05T21:39:26.997Z,0.85
2022-08-05T21:42:01.586Z,0.85
2022-08-05T21:44:34.127Z,1.05
2022-08-05T21:47:06.519Z,0.88
2022-08-05T21:50:01.315Z,0.90
2022-08-05T21:52:32.203Z,0.95
2022-08-05T21:55:06.221Z,1.00
2022-08-05T21:57:35.868Z,1.25
2022-08-05T22:00:11.313Z,1.00
2022-08-05T22:02:44.229Z,0.85
2022-08-05T22:05:14.978Z,1.25
2022-08-05T22:07:58.426Z,1.08
2022-08-05T22:10:29.237Z,1.10
2022-08-05T22:14:05.000Z,0.90
2022-08-05T22:16:02.070Z,0.90
2022-08-05T22:18:39.065Z,1.15
2022-08-05T22:21:14.152Z,0.98
2022-08-05T22:24:13.024Z,1.08
2022-08-05T22:27:14.078Z,0.90
2022-08-05T22:29:46.075Z,0.90
2022-08-05T22:32:17.527Z,1.33
2022-08-05T22:34:46.599Z,1.20
2022-08-05T22:37:16.161Z,0.95
2022-08-05T22:39:50.383Z,1.05
2022-08-05T22:42:21.570Z,1.20
2022-08-05T22:44:56.664Z,1.13
2022-08-05T22:47:29.699Z,0.90
2022-08-05T22:50:21.357Z,1.10
2022-08-05T22:52:51.467Z,0.90
2022-08-05T22:55:24.350Z,0.90
2022-08-05T22:57:55.654Z,1.13
2022-08-05T23:00:28.000Z,0.95
2022-08-05T23:03:01.349Z,0.90
2022-08-05T23:05:35.999Z,1.02
2022-08-05T23:08:05.766Z,0.98
2022-08-05T23:10:36.798Z,1.00
2022-08-05T23:13:08.125Z,1.33
2022-08-05T23:15:37.307Z,1.40
2022-08-05T23:18:11.843Z,1.10
2022-08-05T23:20:45.401Z,1.20
2022-08-05T23:23:14.860Z,1.20
2022-08-05T23:25:53.303Z,1.08
2022-08-05T23:28:27.819Z,1.20
2022-08-05T23:31:15.808Z,0.90
2022-08-05T23:34:04.124Z,0.98
2022-08-05T23:36:39.803Z,1.15
2022-08-05T23:39:17.126Z,1.00
2022-08-05T23:41:56.441Z,0.90
2022-08-05T23:44:31.138Z,1.10
2022-08-05T23:47:02.571Z,1.20
2022-08-05T23:49:45.732Z,1.00
2022-08-05T23:52:29.247Z,1.17
2022-08-05T23:55:01.849Z,1.25
2022-08-05T23:57:37.119Z,1.15
